Rivervale, Arkansas
Current Conditions -  °F | °C
As of 9:53 AM on Friday 21 Nov 2014 (Local Time) from KJBR Reporting Station
Overcast Overcast  
Wind Chill: 39°   Ceiling: 1900
Heat Index: 44°   Visibility: 10mi
Dew Point: 33°   Wind: 9mph
Humidity: 65%   Direction: 90°E
Pressure: 30.36"   Gusts: NA
Location:  35.67°N, 90.34°W
Report Text: KJBR 211553Z AUTO 09008KT 10SM OVC019 07/01 A3036 RMK AO2 SLP280 T00670006
Loading
Personal Weather Stations






























Interactive Weather Map New forecast layout! Learn more

10-Day Weather Forecast

Advertisements
Track Severe Weather on mobile